Tropical Cyclones
[Index]
Main Index Home Page Stock Weather Photos Extreme Storms Discussion Storm News and Storm Chasing Reports Tropical Cyclones / Hurricanes / Typhoons Weather Data and Links Wild Fires / Bushfires Weather Observation Techniques Weather Picture Catalogue Tornado Pictures and Reports Stock Video Footage and DVDs for sale
Season 2000-2001 Tropical Cyclone EVARISTE Track Map
Season 2000-2001 Summaries (Operational Data): [AU] [SIO] [SPAC] [SH]
<<- Previous TC | 2000-2001 Season | Next TC ->>

click for intensity scale information  Lat/long Grid: Show Hide

 Date Labels: Show Hide

Operational Tropical Cyclone Data : JTWC Advisories

Name: EVARISTE
Number: 0118

01 Apr 2001 01:00 UTC to 08 Apr 2001 06:00 UTC

    date/time    lat    long     hPa   cat  kts
2001-04-01 01    9.0    65.0    1008         20          
2001-04-02 12    9.2    61.9    1002         25          
2001-04-03 00    9.8    61.6    1002         25          
2001-04-03 06   10.2    61.9    1002         25          
2001-04-03 12   10.4    62.2    1002         25          
2001-04-03 18   10.3    62.2    1000         25          
2001-04-04 00   10.4    62.2     997         30          
2001-04-04 06   12.0    63.7     998         30          
2001-04-04 12   12.8    63.4     998         30          
2001-04-04 18   13.7    62.8     997         30          
2001-04-05 00   13.2    62.5     991    1    40          
2001-04-05 06   13.6    61.4     991    1    40          
2001-04-05 12   14.4    61.4     980    2    55          
2001-04-05 18   15.0    61.2     977    2    60          
2001-04-06 00   15.7    61.0     977    2    60          
2001-04-06 06   16.3    61.0     976    2    60          
2001-04-06 12   16.8    60.8     978    2    55          
2001-04-06 18   17.8    60.9     980    2    50          
2001-04-07 00   18.6    61.0     980    2    50          
2001-04-07 06   20.4    62.0     984    2    50          
2001-04-07 12   23.2    62.0     988    1    45          
2001-04-07 18   23.2    61.0     992    1    40          
2001-04-08 00   23.3    60.7     998         30          
2001-04-08 06   24.3    61.8                             
Winds are 10-min average.

Tropical cyclone tracks developed by Michael Bath using operational warnings and advisories and Google Maps.


[Australian Severe Weather index] [Copyright Notice] [Email Contacts] [Search This Site] [Privacy Policy]
Document: tropical_cyclone_evariste.htm Updated: 28 May 2013